Pagina principale
METAR-TAF:

METAR-TAF

Aeroporti :

Luni

Sarzana, Italia

latitudine: 44-05N, longitudine: 009-59E, altezza: 9 m

Osservazione

Il bollettino è stato emesso 1 ora e 16 minuti fa, alle 12:55 UTC
Temperature 21°C
Umidità 60%
Pressione 1000 hPa
Visibilità 10 km o più
Nubi sparse ad un'altezza di 2500 ft
Poco nuvoloso ad un'altezza di 3000 ft, Cumulo congesto.

METAR: LIQW 271255Z /////KT 9999 SCT025 FEW030TCU 21/13 Q1000 RMK BKN VIS MIN 9999 WIND THR18 18006KT BLU

Ora: 16:11 (14:11 UTC)

Previsione

Il bollettino è stato emesso 3 ore e 11 minuti fa, alle 11:00 UTC
Previsione valida dal 27 alle 12 UTC al 27 alle 21 UTC
Vento 7 kt da sud
Visibilità 10 km o più
Nubi sparse ad un'altezza di 3000 ft

TAF: LIQW 271100Z 2712/2721 18007KT 9999 SCT030

Osservazioni e previsioni meteorologiche di più di 4000 aeroporti (messaggi METAR e TAF).

Le stazioni disponibili sono rappresentate dai dischi gialli e rossi sulla carta.

Puntare il mouse per vedere il nome della stazione.

Clicca sopra per visualizzare le osservazioni e previsioni meteorologiche.

Per cambiare la mappa : fare clic sui pulsanti verdi con una croce nera per ingrandire, il pulsante verde con un trattino per diminuire, o sulla freccia verde per le mappe adiacenti.


METAR-TAF: